createdAt,value
2023-04-28T00:00:36.646Z,10.73
2023-04-28T00:03:03.769Z,10.37
2023-04-28T00:05:30.752Z,8.80
2023-04-28T00:07:57.710Z,8.67
2023-04-28T00:10:24.433Z,10.50
2023-04-28T00:12:51.269Z,8.83
2023-04-28T00:15:18.173Z,9.37
2023-04-28T00:17:45.167Z,8.40
2023-04-28T00:20:12.487Z,10.03
2023-04-28T00:22:39.335Z,15.47
2023-04-28T00:25:07.265Z,11.20
2023-04-28T00:27:34.879Z,11.17
2023-04-28T00:30:02.049Z,9.63
2023-04-28T00:32:29.620Z,10.97
2023-04-28T00:34:57.533Z,12.17
2023-04-28T00:37:24.440Z,15.00
2023-04-28T00:39:58.089Z,11.10
2023-04-28T00:42:24.938Z,9.80
2023-04-28T00:44:51.761Z,10.43
2023-04-28T00:47:19.750Z,11.47
2023-04-28T00:49:49.606Z,12.97
2023-04-28T00:52:16.606Z,10.50
2023-04-28T00:54:43.816Z,11.10
2023-04-28T00:57:11.025Z,11.73
2023-04-28T00:59:38.161Z,14.53
2023-04-28T01:02:07.483Z,11.10
2023-04-28T01:04:35.568Z,9.90
2023-04-28T01:07:03.093Z,9.83
2023-04-28T01:09:29.949Z,11.13
2023-04-28T01:11:58.347Z,10.17
2023-04-28T01:14:25.280Z,12.10
2023-04-28T01:16:53.632Z,12.37
2023-04-28T01:19:24.973Z,12.90
2023-04-28T01:21:52.233Z,10.90
2023-04-28T01:24:19.539Z,14.60
2023-04-28T01:26:46.547Z,11.33
2023-04-28T01:29:13.658Z,13.43
2023-04-28T01:31:41.403Z,9.20
2023-04-28T01:34:08.224Z,11.10
2023-04-28T01:36:37.297Z,10.87
2023-04-28T01:39:04.971Z,12.00
2023-04-28T01:41:34.468Z,11.27
2023-04-28T01:44:01.511Z,10.27
2023-04-28T01:46:28.433Z,11.20
2023-04-28T01:48:58.019Z,9.63
2023-04-28T01:51:24.858Z,13.03
2023-04-28T01:53:51.756Z,12.13
2023-04-28T01:56:18.505Z,10.10
2023-04-28T01:58:45.242Z,9.73
2023-04-28T02:01:12.474Z,15.17
2023-04-28T02:03:39.433Z,12.40
2023-04-28T02:06:09.159Z,13.53
2023-04-28T02:08:35.957Z,11.20
2023-04-28T02:11:04.056Z,9.70
2023-04-28T02:13:31.229Z,13.07
2023-04-28T02:16:01.879Z,11.57
2023-04-28T02:18:29.047Z,15.93
2023-04-28T02:20:55.891Z,12.23
2023-04-28T02:23:22.890Z,15.47
2023-04-28T02:25:49.703Z,15.30
2023-04-28T02:28:16.505Z,13.73
2023-04-28T02:30:43.357Z,14.80
2023-04-28T02:33:10.235Z,16.63
2023-04-28T02:35:37.067Z,11.57
2023-04-28T02:38:03.873Z,12.37
2023-04-28T02:40:30.763Z,11.00
2023-04-28T02:42:57.479Z,13.13
2023-04-28T02:45:24.423Z,15.03
2023-04-28T02:47:51.461Z,11.53
2023-04-28T02:50:18.467Z,13.53
2023-04-28T02:52:47.075Z,10.50
2023-04-28T02:55:23.606Z,11.87
2023-04-28T02:57:50.625Z,11.97
2023-04-28T03:00:17.567Z,13.73
2023-04-28T03:02:44.523Z,14.13
2023-04-28T03:05:11.959Z,14.87
2023-04-28T03:07:38.737Z,12.30
2023-04-28T03:10:06.053Z,14.07
2023-04-28T03:12:32.806Z,13.13
2023-04-28T03:14:59.626Z,13.90
2023-04-28T03:17:26.466Z,15.13
2023-04-28T03:19:53.358Z,15.03
2023-04-28T03:22:20.124Z,14.60
2023-04-28T03:24:46.859Z,13.60
2023-04-28T03:27:13.626Z,13.13
2023-04-28T03:29:40.394Z,14.50
2023-04-28T03:32:10.503Z,14.80
2023-04-28T03:34:37.766Z,12.73
2023-04-28T03:37:04.825Z,12.87
2023-04-28T03:39:31.573Z,13.50
2023-04-28T03:41:58.304Z,13.07
2023-04-28T03:44:25.201Z,17.27
2023-04-28T03:46:51.896Z,13.87
2023-04-28T03:49:18.690Z,15.07
2023-04-28T03:51:45.477Z,15.13
2023-04-28T03:54:12.186Z,13.43
2023-04-28T03:56:39.218Z,16.80
2023-04-28T03:59:05.956Z,16.77
2023-04-28T04:01:32.691Z,13.63
2023-04-28T04:03:59.702Z,17.87
2023-04-28T04:06:26.719Z,15.60
2023-04-28T04:08:53.557Z,13.57
2023-04-28T04:11:21.265Z,15.17
2023-04-28T04:13:47.944Z,15.20
2023-04-28T04:16:17.639Z,17.70
2023-04-28T04:18:44.403Z,13.50
2023-04-28T04:21:11.179Z,15.23
2023-04-28T04:23:37.897Z,14.47
2023-04-28T04:26:04.720Z,18.33
2023-04-28T04:28:31.444Z,19.13
2023-04-28T04:31:01.093Z,15.90
2023-04-28T04:33:29.094Z,18.13
2023-04-28T04:35:55.867Z,15.00
2023-04-28T04:38:22.610Z,17.57
2023-04-28T04:40:49.473Z,17.37
2023-04-28T04:43:16.236Z,20.20
2023-04-28T04:45:43.066Z,17.93
2023-04-28T04:48:10.038Z,18.27
2023-04-28T04:50:36.888Z,16.53
2023-04-28T04:53:03.723Z,16.00
2023-04-28T04:55:30.785Z,19.37
2023-04-28T04:58:00.239Z,16.27
2023-04-28T05:00:27.018Z,17.80
2023-04-28T05:02:56.392Z,22.70
2023-04-28T05:05:25.575Z,16.93
2023-04-28T05:07:52.427Z,18.30
2023-04-28T05:10:19.267Z,18.77
2023-04-28T05:12:48.325Z,19.40
2023-04-28T05:15:15.889Z,17.93
2023-04-28T05:17:43.012Z,18.77
2023-04-28T05:20:12.192Z,20.30
2023-04-28T05:22:39.644Z,19.07
2023-04-28T05:25:07.336Z,18.90
2023-04-28T05:27:41.017Z,21.07
2023-04-28T05:30:15.362Z,20.33
2023-04-28T05:32:42.374Z,20.10
2023-04-28T05:35:09.311Z,18.83
2023-04-28T05:37:37.769Z,17.23
2023-04-28T05:40:04.994Z,18.73
2023-04-28T05:42:34.965Z,20.10
2023-04-28T05:45:02.766Z,21.87
2023-04-28T05:47:31.222Z,16.83
2023-04-28T05:49:58.018Z,17.13
2023-04-28T05:52:24.987Z,20.97
2023-04-28T05:54:51.786Z,18.40
2023-04-28T05:57:18.607Z,18.33
2023-04-28T05:59:45.732Z,18.03
2023-04-28T06:02:15.502Z,19.60
2023-04-28T06:04:45.507Z,18.87
2023-04-28T06:07:12.569Z,17.37
2023-04-28T06:09:39.331Z,19.17
2023-04-28T06:12:06.625Z,17.40
2023-04-28T06:14:35.518Z,18.93
2023-04-28T06:17:04.618Z,23.40
2023-04-28T06:19:31.455Z,20.63
2023-04-28T06:21:58.531Z,21.17
2023-04-28T06:24:25.427Z,18.67
2023-04-28T06:26:52.253Z,16.07
2023-04-28T06:29:20.538Z,22.40
2023-04-28T06:31:47.271Z,20.13
2023-04-28T06:34:14.504Z,21.10
2023-04-28T06:36:41.552Z,20.87
2023-04-28T06:39:08.388Z,17.47
2023-04-28T06:41:35.546Z,21.90
2023-04-28T06:44:03.521Z,20.23
2023-04-28T06:46:31.749Z,20.63
2023-04-28T06:48:58.556Z,19.20
2023-04-28T06:51:26.850Z,20.23
2023-04-28T06:53:53.859Z,19.20
2023-04-28T06:56:20.822Z,19.93
2023-04-28T06:58:47.755Z,16.77
2023-04-28T07:01:14.890Z,19.67
2023-04-28T07:03:41.743Z,20.90
2023-04-28T07:06:08.895Z,19.90
2023-04-28T07:08:36.974Z,19.70
2023-04-28T07:11:04.863Z,20.53
2023-04-28T07:13:32.644Z,19.27
2023-04-28T07:15:59.670Z,19.60
2023-04-28T07:18:29.317Z,20.33
2023-04-28T07:20:56.153Z,22.00
2023-04-28T07:23:22.979Z,19.20
2023-04-28T07:25:49.794Z,20.70
2023-04-28T07:28:17.402Z,22.23
2023-04-28T07:30:44.119Z,20.87
2023-04-28T07:33:13.743Z,20.50
2023-04-28T07:35:40.704Z,19.93
2023-04-28T07:38:07.882Z,19.13
2023-04-28T07:40:34.927Z,23.47
2023-04-28T07:43:01.777Z,22.63
2023-04-28T07:45:29.206Z,21.33
2023-04-28T07:47:56.476Z,24.43
2023-04-28T07:50:23.526Z,22.07
2023-04-28T07:52:50.364Z,19.87
2023-04-28T07:55:17.218Z,20.37
2023-04-28T07:57:44.085Z,18.47
2023-04-28T08:00:11.994Z,19.63
2023-04-28T08:02:42.244Z,18.50
2023-04-28T08:05:10.096Z,19.23
2023-04-28T08:07:37.848Z,19.50
2023-04-28T08:10:05.551Z,19.20
2023-04-28T08:12:35.626Z,19.97
2023-04-28T08:15:02.705Z,20.73
2023-04-28T08:17:29.647Z,18.90
2023-04-28T08:19:56.499Z,19.97
2023-04-28T08:22:23.313Z,19.87
2023-04-28T08:24:50.086Z,19.43
2023-04-28T08:27:16.869Z,22.03
2023-04-28T08:29:46.531Z,21.17
2023-04-28T08:32:13.427Z,20.97
2023-04-28T08:34:40.271Z,17.93
2023-04-28T08:37:07.176Z,18.10
2023-04-28T08:39:35.432Z,18.27
2023-04-28T08:42:05.524Z,19.20
2023-04-28T08:44:41.022Z,18.47
2023-04-28T08:47:14.978Z,20.77
2023-04-28T08:49:44.261Z,17.40
2023-04-28T08:52:17.720Z,18.10
2023-04-28T08:54:46.047Z,17.03
2023-04-28T08:57:13.685Z,17.30
2023-04-28T08:59:41.529Z,19.63
2023-04-28T09:02:09.757Z,17.97
2023-04-28T09:04:37.348Z,15.63
2023-04-28T09:07:04.387Z,17.40
2023-04-28T09:09:34.239Z,16.97
2023-04-28T09:12:05.278Z,20.67
2023-04-28T09:14:34.863Z,18.60
2023-04-28T09:17:12.063Z,20.87
2023-04-28T09:19:45.291Z,18.73
2023-04-28T09:22:26.329Z,18.20
2023-04-28T09:24:55.410Z,21.60
2023-04-28T09:27:28.398Z,18.73
2023-04-28T09:29:55.458Z,16.93
2023-04-28T09:32:23.814Z,19.50
2023-04-28T09:34:53.740Z,19.70
2023-04-28T09:37:26.641Z,18.30
2023-04-28T09:40:01.500Z,18.43
2023-04-28T09:42:42.618Z,19.77
2023-04-28T09:45:15.344Z,18.20
2023-04-28T09:47:43.970Z,18.30
2023-04-28T09:50:15.204Z,16.63
2023-04-28T09:52:44.316Z,17.20
2023-04-28T09:55:14.818Z,17.80
2023-04-28T09:57:44.631Z,19.33
2023-04-28T10:00:11.900Z,24.27
2023-04-28T10:02:43.392Z,24.90
2023-04-28T10:05:11.524Z,20.40
2023-04-28T10:07:39.470Z,21.60
2023-04-28T10:10:07.820Z,23.67
2023-04-28T10:12:35.315Z,22.27
2023-04-28T10:15:02.777Z,23.30
2023-04-28T10:17:29.955Z,21.63
2023-04-28T10:19:57.520Z,23.33
2023-04-28T10:22:45.556Z,23.33
2023-04-28T10:25:12.371Z,22.00
2023-04-28T10:27:41.728Z,21.10
2023-04-28T10:33:16.161Z,21.40
2023-04-28T10:35:47.935Z,21.47
2023-04-28T10:38:24.024Z,19.03
2023-04-28T10:40:52.938Z,21.40
2023-04-28T10:43:26.206Z,20.13
2023-04-28T10:45:56.020Z,19.07
2023-04-28T10:48:46.531Z,20.57
2023-04-28T10:51:16.506Z,18.77
2023-04-28T10:53:46.835Z,20.33
2023-04-28T10:56:19.094Z,19.20
2023-04-28T10:58:47.106Z,20.17
2023-04-28T11:01:24.383Z,18.93
2023-04-28T11:04:14.016Z,20.50
2023-04-28T11:07:04.744Z,16.77
2023-04-28T11:09:31.526Z,18.90
2023-04-28T11:12:01.148Z,18.47
2023-04-28T11:14:40.951Z,21.90
2023-04-28T11:17:11.365Z,19.83
2023-04-28T11:19:41.150Z,21.27
2023-04-28T11:22:15.259Z,18.30
2023-04-28T11:24:42.256Z,18.40
2023-04-28T11:27:09.063Z,16.77
2023-04-28T11:29:40.538Z,18.97
2023-04-28T11:32:10.932Z,18.07
2023-04-28T11:34:38.150Z,18.53
2023-04-28T11:37:07.215Z,16.63
2023-04-28T11:39:34.820Z,18.17
2023-04-28T11:42:10.928Z,16.17
2023-04-28T11:44:41.039Z,19.50
2023-04-28T11:47:07.953Z,17.50
2023-04-28T11:49:45.862Z,18.87
2023-04-28T11:52:13.754Z,15.37
2023-04-28T11:54:43.501Z,16.43
2023-04-28T11:57:21.764Z,19.83
2023-04-28T11:59:49.681Z,17.87
2023-04-28T12:02:24.387Z,15.43
2023-04-28T12:04:52.203Z,12.37
2023-04-28T12:07:19.819Z,12.20
2023-04-28T12:10:08.507Z,10.47
2023-04-28T12:12:49.161Z,8.20
2023-04-28T12:15:20.156Z,7.50
2023-04-28T12:17:49.467Z,6.33
2023-04-28T12:20:39.683Z,6.67
2023-04-28T12:23:07.786Z,6.93
2023-04-28T12:25:46.411Z,5.80
2023-04-28T12:28:13.501Z,6.23
2023-04-28T12:30:42.633Z,5.10
2023-04-28T12:33:24.120Z,5.10
2023-04-28T12:35:51.039Z,6.37
2023-04-28T12:38:18.256Z,6.07
2023-04-28T12:40:45.081Z,5.27
2023-04-28T12:43:11.802Z,5.93
2023-04-28T12:45:41.927Z,6.60
2023-04-28T12:48:08.802Z,7.37
2023-04-28T12:50:35.692Z,7.13
2023-04-28T12:53:02.396Z,9.57
2023-04-28T12:55:29.608Z,7.27
2023-04-28T12:57:56.422Z,8.57
2023-04-28T13:00:25.104Z,9.33
2023-04-28T13:02:53.233Z,7.80
2023-04-28T13:05:20.296Z,10.90
2023-04-28T13:07:47.773Z,9.80
2023-04-28T13:10:14.782Z,7.97
2023-04-28T13:12:43.912Z,7.13
2023-04-28T13:15:11.420Z,8.03
2023-04-28T13:17:38.542Z,7.50
2023-04-28T13:20:06.691Z,6.57
2023-04-28T13:22:33.624Z,7.27
2023-04-28T13:25:00.520Z,6.30
2023-04-28T13:27:30.273Z,6.27
2023-04-28T13:29:59.276Z,5.17
2023-04-28T13:32:28.136Z,5.80
2023-04-28T13:34:55.471Z,4.80
2023-04-28T13:37:22.272Z,6.57
2023-04-28T13:39:49.045Z,6.03
2023-04-28T13:42:16.153Z,5.17
2023-04-28T13:44:42.930Z,4.83
2023-04-28T13:47:10.989Z,5.23
2023-04-28T13:49:39.633Z,6.00
2023-04-28T13:52:06.534Z,4.60
2023-04-28T13:54:36.562Z,5.17
2023-04-28T13:57:03.589Z,6.63
2023-04-28T13:59:30.361Z,7.23
2023-04-28T14:01:58.726Z,6.37
2023-04-28T14:04:25.897Z,6.10
2023-04-28T14:06:53.018Z,6.47
2023-04-28T14:09:19.886Z,6.77
2023-04-28T14:11:46.590Z,5.70
2023-04-28T14:14:13.444Z,6.67
2023-04-28T14:16:40.258Z,5.73
2023-04-28T14:19:09.914Z,5.87
2023-04-28T14:21:38.182Z,8.27
2023-04-28T14:24:11.317Z,5.70
2023-04-28T14:26:38.242Z,3.90
2023-04-28T14:29:05.752Z,4.50
2023-04-28T14:31:32.621Z,4.80
2023-04-28T14:33:59.571Z,2.90
2023-04-28T14:36:26.253Z,2.63
2023-04-28T14:38:53.209Z,4.03
2023-04-28T14:41:20.161Z,5.00
2023-04-28T14:43:47.213Z,7.23
2023-04-28T14:46:14.263Z,11.90
2023-04-28T14:48:41.603Z,8.43
2023-04-28T14:51:08.448Z,10.07
2023-04-28T14:53:35.315Z,10.87
2023-04-28T14:56:17.980Z,13.37
2023-04-28T14:58:48.531Z,10.37
2023-04-28T15:01:15.502Z,14.90
2023-04-28T15:03:43.649Z,13.70
2023-04-28T15:06:11.875Z,12.80
2023-04-28T15:08:40.346Z,13.00
2023-04-28T15:11:07.157Z,12.83
2023-04-28T15:13:34.151Z,13.73
2023-04-28T15:16:01.191Z,16.13
2023-04-28T15:18:28.433Z,14.07
2023-04-28T15:20:55.503Z,15.30
2023-04-28T15:23:24.868Z,14.83
2023-04-28T15:25:55.717Z,13.27
2023-04-28T15:28:22.764Z,15.00
2023-04-28T15:30:52.626Z,13.23
2023-04-28T15:33:19.592Z,13.57
2023-04-28T15:35:47.399Z,12.80
2023-04-28T15:38:17.744Z,11.40
2023-04-28T15:40:45.976Z,11.57
2023-04-28T15:43:13.859Z,11.20
2023-04-28T15:45:44.889Z,12.00
2023-04-28T15:48:12.143Z,12.00
2023-04-28T15:50:38.984Z,11.07
2023-04-28T15:53:05.881Z,12.87
2023-04-28T15:55:32.840Z,12.73
2023-04-28T15:57:59.770Z,10.67
2023-04-28T16:00:26.674Z,13.07
2023-04-28T16:02:53.575Z,13.87
2023-04-28T16:05:20.763Z,11.43
2023-04-28T16:07:48.541Z,10.17
2023-04-28T16:10:16.689Z,10.50
2023-04-28T16:12:46.116Z,12.90
2023-04-28T16:15:14.726Z,11.23
2023-04-28T16:17:42.265Z,12.40
2023-04-28T16:20:11.029Z,11.20
2023-04-28T16:22:38.939Z,9.90
2023-04-28T16:25:06.745Z,11.20
2023-04-28T16:27:35.064Z,9.27
2023-04-28T16:30:02.238Z,11.07
2023-04-28T16:32:29.176Z,11.97
2023-04-28T16:35:02.288Z,7.67
2023-04-28T16:37:29.205Z,9.60
2023-04-28T16:39:57.622Z,10.10
2023-04-28T16:42:26.791Z,9.27
2023-04-28T16:44:56.669Z,8.70
2023-04-28T16:47:23.473Z,8.40
2023-04-28T16:49:53.520Z,9.30
2023-04-28T16:52:20.414Z,11.17
2023-04-28T16:54:47.301Z,9.73
2023-04-28T16:57:14.960Z,9.70
2023-04-28T16:59:41.723Z,8.50
2023-04-28T17:02:14.702Z,9.73
2023-04-28T17:04:42.007Z,10.40
2023-04-28T17:07:10.851Z,9.37
2023-04-28T17:09:38.502Z,9.70
2023-04-28T17:12:05.652Z,9.13
2023-04-28T17:14:32.483Z,7.40
2023-04-28T17:16:59.482Z,9.93
2023-04-28T17:19:26.742Z,7.77
2023-04-28T17:21:55.664Z,7.63
2023-04-28T17:24:24.113Z,7.23
2023-04-28T17:26:51.216Z,9.10
2023-04-28T17:29:19.579Z,10.00
2023-04-28T17:31:46.497Z,9.40
2023-04-28T17:34:20.142Z,7.87
2023-04-28T17:36:47.065Z,9.83
2023-04-28T17:39:16.148Z,7.37
2023-04-28T17:41:43.722Z,10.40
2023-04-28T17:44:12.824Z,7.70
2023-04-28T17:46:39.927Z,8.90
2023-04-28T17:49:06.709Z,12.30
2023-04-28T17:51:33.437Z,11.00
2023-04-28T17:54:00.656Z,10.10
2023-04-28T17:56:28.430Z,8.93
2023-04-28T17:58:56.332Z,12.60
2023-04-28T18:01:23.357Z,9.67
2023-04-28T18:03:53.181Z,10.77
2023-04-28T18:06:22.355Z,10.40
2023-04-28T18:08:49.661Z,8.73
2023-04-28T18:11:17.124Z,9.10
2023-04-28T18:13:46.882Z,8.60
2023-04-28T18:16:15.076Z,8.73
2023-04-28T18:18:44.758Z,9.23
2023-04-28T18:21:11.623Z,7.43
2023-04-28T18:23:41.510Z,6.67
2023-04-28T18:26:08.720Z,6.80
2023-04-28T18:28:36.145Z,7.67
2023-04-28T18:31:05.534Z,5.63
2023-04-28T18:33:32.687Z,6.20
2023-04-28T18:36:05.119Z,5.50
2023-04-28T18:38:34.523Z,8.43
2023-04-28T18:41:22.392Z,7.50
2023-04-28T18:43:49.331Z,9.93
2023-04-28T18:46:16.318Z,10.70
2023-04-28T18:48:43.716Z,8.63
2023-04-28T18:51:10.716Z,11.60
2023-04-28T18:53:37.626Z,11.77
2023-04-28T18:56:07.485Z,11.27
2023-04-28T18:58:37.090Z,13.93
2023-04-28T19:01:04.250Z,11.70
2023-04-28T19:03:33.870Z,11.10
2023-04-28T19:06:00.820Z,11.60
2023-04-28T19:08:30.970Z,13.00
2023-04-28T19:10:58.701Z,14.33
2023-04-28T19:13:26.048Z,13.73
2023-04-28T19:15:54.417Z,11.47
2023-04-28T19:18:21.156Z,9.97
2023-04-28T19:20:50.465Z,7.73
2023-04-28T19:23:17.253Z,6.23
2023-04-28T19:25:45.523Z,5.77
2023-04-28T19:28:12.421Z,7.40
2023-04-28T19:30:39.250Z,9.77
2023-04-28T19:33:06.144Z,10.13
2023-04-28T19:35:33.735Z,16.43
2023-04-28T19:38:00.539Z,12.77
2023-04-28T19:40:28.819Z,18.13
2023-04-28T19:42:55.860Z,20.60
2023-04-28T19:45:22.925Z,21.17
2023-04-28T19:47:49.835Z,25.53
2023-04-28T19:50:19.470Z,25.30
2023-04-28T19:52:49.226Z,26.97
2023-04-28T19:55:20.596Z,31.47
2023-04-28T19:57:47.575Z,32.30
2023-04-28T20:00:15.101Z,30.60
2023-04-28T20:02:42.900Z,26.77
2023-04-28T20:05:09.780Z,31.13
2023-04-28T20:07:40.948Z,30.33
2023-04-28T20:10:08.212Z,29.60
2023-04-28T20:12:35.498Z,29.17
2023-04-28T20:15:02.338Z,31.53
2023-04-28T20:17:29.180Z,32.13
2023-04-28T20:20:03.002Z,33.57
2023-04-28T20:22:31.862Z,33.83
2023-04-28T20:25:00.698Z,35.63
2023-04-28T20:27:27.732Z,36.90
2023-04-28T20:29:54.599Z,40.67
2023-04-28T20:32:21.384Z,36.30
2023-04-28T20:34:48.330Z,34.23
2023-04-28T20:37:15.241Z,37.43
2023-04-28T20:39:42.107Z,38.40
2023-04-28T20:42:09.126Z,43.43
2023-04-28T20:44:35.815Z,41.40
2023-04-28T20:47:02.742Z,42.43
2023-04-28T20:49:29.803Z,45.80
2023-04-28T20:52:03.980Z,42.83
2023-04-28T20:54:32.764Z,44.40
2023-04-28T20:57:00.743Z,38.40
2023-04-28T20:59:29.420Z,39.73
2023-04-28T21:01:59.778Z,38.60
2023-04-28T21:04:26.715Z,41.93
2023-04-28T21:06:53.658Z,42.47
2023-04-28T21:09:20.912Z,41.10
2023-04-28T21:11:48.149Z,38.00
2023-04-28T21:14:15.351Z,42.87
2023-04-28T21:16:43.595Z,42.77
2023-04-28T21:19:10.890Z,50.30
2023-04-28T21:21:38.217Z,47.90
2023-04-28T21:24:09.313Z,45.13
2023-04-28T21:26:36.938Z,46.97
2023-04-28T21:29:03.936Z,45.53
2023-04-28T21:31:31.273Z,47.10
2023-04-28T21:33:58.204Z,48.13
2023-04-28T21:36:25.106Z,47.47
2023-04-28T21:38:51.883Z,45.50
2023-04-28T21:41:18.771Z,46.37
2023-04-28T21:43:51.876Z,48.93
2023-04-28T21:46:19.135Z,46.43
2023-04-28T21:48:46.474Z,49.90
2023-04-28T21:51:14.541Z,48.27
2023-04-28T21:53:41.305Z,50.20
2023-04-28T21:56:08.291Z,52.97
2023-04-28T21:58:35.815Z,53.03
2023-04-28T22:01:03.886Z,48.60
2023-04-28T22:03:31.400Z,50.17
2023-04-28T22:05:58.259Z,52.50
2023-04-28T22:08:25.101Z,49.10
2023-04-28T22:10:54.696Z,53.07
2023-04-28T22:13:22.812Z,56.97
2023-04-28T22:15:49.805Z,61.73
2023-04-28T22:18:17.315Z,62.57
2023-04-28T22:20:44.648Z,61.37
2023-04-28T22:23:12.540Z,61.80
2023-04-28T22:25:39.441Z,61.80
2023-04-28T22:28:06.379Z,56.00
2023-04-28T22:30:33.338Z,56.57
2023-04-28T22:33:00.366Z,56.43
2023-04-28T22:35:27.150Z,58.80
2023-04-28T22:37:53.901Z,58.30
2023-04-28T22:40:20.681Z,57.60
2023-04-28T22:42:47.604Z,58.13
2023-04-28T22:45:14.483Z,59.33
2023-04-28T22:47:41.727Z,55.97
2023-04-28T22:50:10.440Z,59.47
2023-04-28T22:52:37.694Z,54.17
2023-04-28T22:55:04.935Z,59.60
2023-04-28T22:57:31.835Z,54.10
2023-04-28T22:59:58.677Z,56.57
2023-04-28T23:02:25.727Z,55.13
2023-04-28T23:04:55.293Z,45.80
2023-04-28T23:07:22.204Z,46.00
2023-04-28T23:09:49.186Z,41.13
2023-04-28T23:12:16.407Z,43.80
2023-04-28T23:14:43.240Z,39.53
2023-04-28T23:17:09.977Z,46.83
2023-04-28T23:19:39.507Z,44.20
2023-04-28T23:22:07.381Z,40.83
2023-04-28T23:24:36.690Z,44.63
2023-04-28T23:27:03.711Z,49.50
2023-04-28T23:29:30.762Z,41.83
2023-04-28T23:31:57.952Z,40.93
2023-04-28T23:34:27.918Z,40.33
2023-04-28T23:36:54.859Z,36.07
2023-04-28T23:39:21.694Z,37.70
2023-04-28T23:41:51.297Z,37.33
2023-04-28T23:44:18.108Z,35.17
2023-04-28T23:46:44.834Z,33.70
2023-04-28T23:49:11.748Z,32.53
2023-04-28T23:51:39.303Z,30.50
2023-04-28T23:54:06.021Z,30.33
2023-04-28T23:56:33.166Z,29.07
2023-04-28T23:59:00.167Z,31.47
